sensor_id;sensor_type;location;lat;lon;timestamp;pressure;altitude;pressure_sealevel;temperature;humidity
53715;BME280;39608;55.630;37.864;2022-11-20T00:00:12;99494.88;;;-0.49;67.51
53715;BME280;39608;55.630;37.864;2022-11-20T00:05:14;99490.91;;;-0.59;67.95
53715;BME280;39608;55.630;37.864;2022-11-20T00:10:16;99494.59;;;-0.60;67.91
53715;BME280;39608;55.630;37.864;2022-11-20T00:15:20;99505.75;;;-0.51;67.99
53715;BME280;39608;55.630;37.864;2022-11-20T00:20:22;99502.50;;;-0.53;67.97
53715;BME280;39608;55.630;37.864;2022-11-20T00:25:24;99502.28;;;-0.52;68.43
53715;BME280;39608;55.630;37.864;2022-11-20T00:30:27;99500.03;;;-0.55;67.91
53715;BME280;39608;55.630;37.864;2022-11-20T00:35:29;99506.28;;;-0.61;68.10
53715;BME280;39608;55.630;37.864;2022-11-20T00:40:31;99499.75;;;-0.65;67.85
53715;BME280;39608;55.630;37.864;2022-11-20T00:45:35;99497.59;;;-0.75;67.50
53715;BME280;39608;55.630;37.864;2022-11-20T00:50:37;99498.06;;;-0.78;67.98
53715;BME280;39608;55.630;37.864;2022-11-20T00:55:39;99500.59;;;-0.90;67.99
53715;BME280;39608;55.630;37.864;2022-11-20T01:00:42;99509.03;;;-0.93;67.66
53715;BME280;39608;55.630;37.864;2022-11-20T01:05:44;99508.69;;;-0.96;67.58
53715;BME280;39608;55.630;37.864;2022-11-20T01:10:46;99503.19;;;-1.01;68.06
53715;BME280;39608;55.630;37.864;2022-11-20T01:15:50;99499.72;;;-1.02;67.62
53715;BME280;39608;55.630;37.864;2022-11-20T01:20:54;99497.41;;;-0.98;67.54
53715;BME280;39608;55.630;37.864;2022-11-20T01:25:56;99500.31;;;-1.00;68.13
53715;BME280;39608;55.630;37.864;2022-11-20T01:30:59;99504.66;;;-1.06;67.79
53715;BME280;39608;55.630;37.864;2022-11-20T01:36:05;99498.75;;;-1.08;67.51
53715;BME280;39608;55.630;37.864;2022-11-20T01:41:08;99506.94;;;-1.09;68.08
53715;BME280;39608;55.630;37.864;2022-11-20T01:46:16;99507.53;;;-1.07;67.58
53715;BME280;39608;55.630;37.864;2022-11-20T01:51:23;99515.75;;;-1.09;67.65
53715;BME280;39608;55.630;37.864;2022-11-20T01:56:27;99515.00;;;-1.16;68.12
53715;BME280;39608;55.630;37.864;2022-11-20T02:01:31;99527.06;;;-1.13;68.20
53715;BME280;39608;55.630;37.864;2022-11-20T02:06:36;99535.41;;;-1.10;68.01
53715;BME280;39608;55.630;37.864;2022-11-20T02:11:41;99527.81;;;-1.06;67.72
53715;BME280;39608;55.630;37.864;2022-11-20T02:16:46;99527.84;;;-1.13;67.57
53715;BME280;39608;55.630;37.864;2022-11-20T02:21:55;99539.25;;;-1.06;67.49
53715;BME280;39608;55.630;37.864;2022-11-20T02:27:02;99543.16;;;-1.08;67.91
53715;BME280;39608;55.630;37.864;2022-11-20T02:32:05;99549.38;;;-1.14;68.03
53715;BME280;39608;55.630;37.864;2022-11-20T02:37:07;99546.72;;;-1.14;67.79
53715;BME280;39608;55.630;37.864;2022-11-20T02:42:11;99565.69;;;-1.11;67.87
53715;BME280;39608;55.630;37.864;2022-11-20T02:47:13;99559.00;;;-1.13;67.60
53715;BME280;39608;55.630;37.864;2022-11-20T02:52:15;99563.25;;;-1.12;68.18
53715;BME280;39608;55.630;37.864;2022-11-20T02:57:18;99564.00;;;-1.05;67.83
53715;BME280;39608;55.630;37.864;2022-11-20T03:02:20;99560.53;;;-1.06;68.14
53715;BME280;39608;55.630;37.864;2022-11-20T03:07:22;99562.00;;;-1.10;67.78
53715;BME280;39608;55.630;37.864;2022-11-20T03:12:26;99566.91;;;-1.07;67.57
53715;BME280;39608;55.630;37.864;2022-11-20T03:17:28;99564.09;;;-1.12;67.80
53715;BME280;39608;55.630;37.864;2022-11-20T03:22:31;99580.88;;;-1.11;67.88
53715;BME280;39608;55.630;37.864;2022-11-20T03:27:35;99567.13;;;-1.08;68.36
53715;BME280;39608;55.630;37.864;2022-11-20T03:32:36;99585.38;;;-1.12;68.17
53715;BME280;39608;55.630;37.864;2022-11-20T03:37:38;99583.97;;;-1.14;67.58
53715;BME280;39608;55.630;37.864;2022-11-20T03:42:42;99574.78;;;-1.18;68.01
53715;BME280;39608;55.630;37.864;2022-11-20T03:47:47;99571.56;;;-1.27;67.79
53715;BME280;39608;55.630;37.864;2022-11-20T03:52:49;99588.94;;;-1.25;67.38
53715;BME280;39608;55.630;37.864;2022-11-20T03:57:52;99589.97;;;-1.26;68.19
53715;BME280;39608;55.630;37.864;2022-11-20T04:02:57;99593.44;;;-1.25;67.98
53715;BME280;39608;55.630;37.864;2022-11-20T04:07:59;99604.53;;;-1.28;68.02
53715;BME280;39608;55.630;37.864;2022-11-20T04:13:03;99600.63;;;-1.26;68.22
53715;BME280;39608;55.630;37.864;2022-11-20T04:18:05;99608.19;;;-1.29;67.42
53715;BME280;39608;55.630;37.864;2022-11-20T04:23:06;99607.63;;;-1.31;67.80
53715;BME280;39608;55.630;37.864;2022-11-20T04:28:10;99617.22;;;-1.30;67.78
53715;BME280;39608;55.630;37.864;2022-11-20T04:33:12;99621.53;;;-1.36;67.47
53715;BME280;39608;55.630;37.864;2022-11-20T04:38:14;99636.91;;;-1.38;67.81
53715;BME280;39608;55.630;37.864;2022-11-20T04:43:17;99636.06;;;-1.39;68.18
53715;BME280;39608;55.630;37.864;2022-11-20T04:48:19;99649.22;;;-1.44;68.20
53715;BME280;39608;55.630;37.864;2022-11-20T04:53:22;99634.94;;;-1.49;68.11
53715;BME280;39608;55.630;37.864;2022-11-20T04:58:25;99659.84;;;-1.37;67.65
53715;BME280;39608;55.630;37.864;2022-11-20T05:03:27;99662.50;;;-1.37;68.14
53715;BME280;39608;55.630;37.864;2022-11-20T05:08:30;99664.09;;;-1.36;67.92
53715;BME280;39608;55.630;37.864;2022-11-20T05:13:34;99661.03;;;-1.33;67.84
53715;BME280;39608;55.630;37.864;2022-11-20T05:18:37;99665.75;;;-1.35;67.81
53715;BME280;39608;55.630;37.864;2022-11-20T05:23:40;99684.97;;;-1.33;67.49
53715;BME280;39608;55.630;37.864;2022-11-20T05:28:44;99693.16;;;-1.34;67.24
53715;BME280;39608;55.630;37.864;2022-11-20T05:33:46;99689.34;;;-1.45;67.50
53715;BME280;39608;55.630;37.864;2022-11-20T05:38:48;99693.59;;;-1.44;68.04
53715;BME280;39608;55.630;37.864;2022-11-20T05:43:51;99682.19;;;-1.51;67.17
53715;BME280;39608;55.630;37.864;2022-11-20T05:48:53;99708.72;;;-1.38;67.51
53715;BME280;39608;55.630;37.864;2022-11-20T05:53:56;99715.06;;;-1.39;67.24
53715;BME280;39608;55.630;37.864;2022-11-20T05:59:00;99724.06;;;-1.40;67.04
53715;BME280;39608;55.630;37.864;2022-11-20T06:04:02;99727.56;;;-1.40;67.82
53715;BME280;39608;55.630;37.864;2022-11-20T06:09:04;99740.88;;;-1.40;67.54
53715;BME280;39608;55.630;37.864;2022-11-20T06:14:07;99745.34;;;-1.40;67.37
53715;BME280;39608;55.630;37.864;2022-11-20T06:19:09;99749.88;;;-1.41;67.17
53715;BME280;39608;55.630;37.864;2022-11-20T06:24:11;99765.41;;;-1.38;67.17
53715;BME280;39608;55.630;37.864;2022-11-20T06:29:15;99772.56;;;-1.38;67.34
53715;BME280;39608;55.630;37.864;2022-11-20T06:34:17;99778.91;;;-1.39;67.44
53715;BME280;39608;55.630;37.864;2022-11-20T06:39:19;99784.66;;;-1.42;66.86
53715;BME280;39608;55.630;37.864;2022-11-20T06:44:22;99782.00;;;-1.42;67.33
53715;BME280;39608;55.630;37.864;2022-11-20T06:49:25;99777.28;;;-1.40;67.33
53715;BME280;39608;55.630;37.864;2022-11-20T06:54:27;99768.28;;;-1.46;67.28
53715;BME280;39608;55.630;37.864;2022-11-20T06:59:31;99781.56;;;-1.39;67.52
53715;BME280;39608;55.630;37.864;2022-11-20T07:04:34;99783.22;;;-1.38;67.37
53715;BME280;39608;55.630;37.864;2022-11-20T07:09:36;99768.69;;;-1.35;67.13
53715;BME280;39608;55.630;37.864;2022-11-20T07:14:39;99775.00;;;-1.30;67.42
53715;BME280;39608;55.630;37.864;2022-11-20T07:19:41;99790.53;;;-1.27;67.62
53715;BME280;39608;55.630;37.864;2022-11-20T07:24:43;99787.84;;;-1.13;67.28
53715;BME280;39608;55.630;37.864;2022-11-20T07:29:47;99771.66;;;-1.12;66.39
53715;BME280;39608;55.630;37.864;2022-11-20T07:34:48;99784.97;;;-1.12;66.99
53715;BME280;39608;55.630;37.864;2022-11-20T07:39:50;99783.53;;;-1.14;66.74
53715;BME280;39608;55.630;37.864;2022-11-20T07:44:57;99781.25;;;-1.11;66.79
53715;BME280;39608;55.630;37.864;2022-11-20T07:49:59;99789.88;;;-1.09;66.79
53715;BME280;39608;55.630;37.864;2022-11-20T07:55:01;99791.31;;;-1.13;66.80
53715;BME280;39608;55.630;37.864;2022-11-20T08:00:09;99791.34;;;-1.19;66.77
53715;BME280;39608;55.630;37.864;2022-11-20T08:05:14;99804.38;;;-1.05;66.76
53715;BME280;39608;55.630;37.864;2022-11-20T08:10:16;99790.09;;;-1.10;66.74
53715;BME280;39608;55.630;37.864;2022-11-20T08:15:19;99819.31;;;-1.04;66.34
53715;BME280;39608;55.630;37.864;2022-11-20T08:20:21;99812.53;;;-0.99;66.48
53715;BME280;39608;55.630;37.864;2022-11-20T08:25:23;99825.59;;;-0.91;66.16
53715;BME280;39608;55.630;37.864;2022-11-20T08:30:27;99823.34;;;-0.88;66.37
53715;BME280;39608;55.630;37.864;2022-11-20T08:35:33;99821.91;;;-0.83;66.09
53715;BME280;39608;55.630;37.864;2022-11-20T08:40:36;99827.25;;;-0.90;66.40
53715;BME280;39608;55.630;37.864;2022-11-20T08:45:39;99826.22;;;-0.82;65.87
53715;BME280;39608;55.630;37.864;2022-11-20T08:50:41;99844.63;;;-0.81;66.55
53715;BME280;39608;55.630;37.864;2022-11-20T08:55:43;99840.31;;;-0.82;66.26
53715;BME280;39608;55.630;37.864;2022-11-20T09:00:47;99868.94;;;-0.71;66.11
53715;BME280;39608;55.630;37.864;2022-11-20T09:05:49;99879.56;;;-0.57;66.23
53715;BME280;39608;55.630;37.864;2022-11-20T09:10:51;99881.75;;;-0.47;66.42
53715;BME280;39608;55.630;37.864;2022-11-20T09:15:55;99883.13;;;-0.38;65.99
53715;BME280;39608;55.630;37.864;2022-11-20T09:20:58;99884.19;;;-0.39;66.23
53715;BME280;39608;55.630;37.864;2022-11-20T09:26:05;99892.06;;;-0.19;66.07
53715;BME280;39608;55.630;37.864;2022-11-20T09:31:13;99902.09;;;-0.21;66.07
53715;BME280;39608;55.630;37.864;2022-11-20T09:36:19;99909.91;;;-0.20;65.90
53715;BME280;39608;55.630;37.864;2022-11-20T09:41:49;99928.25;;;-0.05;65.95
53715;BME280;39608;55.630;37.864;2022-11-20T09:47:02;99924.75;;;0.02;65.93
53715;BME280;39608;55.630;37.864;2022-11-20T09:52:15;99911.44;;;-0.05;65.50
53715;BME280;39608;55.630;37.864;2022-11-20T09:57:34;99918.53;;;0.08;65.49
53715;BME280;39608;55.630;37.864;2022-11-20T10:02:42;99906.97;;;-0.11;65.60
53715;BME280;39608;55.630;37.864;2022-11-20T10:07:51;99933.13;;;0.05;65.86
53715;BME280;39608;55.630;37.864;2022-11-20T10:13:08;99930.69;;;-0.03;66.23
53715;BME280;39608;55.630;37.864;2022-11-20T10:18:23;99938.69;;;-0.03;66.46
53715;BME280;39608;55.630;37.864;2022-11-20T10:23:47;99941.97;;;-0.01;66.39
53715;BME280;39608;55.630;37.864;2022-11-20T10:29:11;99952.41;;;0.07;66.34
53715;BME280;39608;55.630;37.864;2022-11-20T10:34:20;99946.22;;;0.07;66.61
53715;BME280;39608;55.630;37.864;2022-11-20T10:39:31;99946.22;;;0.07;66.59
53715;BME280;39608;55.630;37.864;2022-11-20T10:44:36;99956.75;;;0.02;66.21
53715;BME280;39608;55.630;37.864;2022-11-20T10:50:03;99967.78;;;0.05;66.25
53715;BME280;39608;55.630;37.864;2022-11-20T10:55:11;99963.28;;;0.06;66.43
53715;BME280;39608;55.630;37.864;2022-11-20T11:00:18;99965.16;;;-0.02;66.60
53715;BME280;39608;55.630;37.864;2022-11-20T11:05:33;99958.34;;;0.03;66.96
53715;BME280;39608;55.630;37.864;2022-11-20T11:10:39;99961.66;;;-0.02;67.08
53715;BME280;39608;55.630;37.864;2022-11-20T11:15:47;99966.56;;;0.01;67.09
53715;BME280;39608;55.630;37.864;2022-11-20T11:20:51;99963.31;;;-0.01;66.82
53715;BME280;39608;55.630;37.864;2022-11-20T11:25:57;99973.13;;;0.05;66.97
53715;BME280;39608;55.630;37.864;2022-11-20T11:31:00;99974.53;;;0.08;67.07
53715;BME280;39608;55.630;37.864;2022-11-20T11:36:14;99965.66;;;0.14;67.40
53715;BME280;39608;55.630;37.864;2022-11-20T11:41:21;99946.69;;;-0.03;67.23
53715;BME280;39608;55.630;37.864;2022-11-20T11:46:28;99964.22;;;0.18;67.20
53715;BME280;39608;55.630;37.864;2022-11-20T11:51:39;99957.47;;;0.15;67.18
53715;BME280;39608;55.630;37.864;2022-11-20T11:56:46;99976.22;;;0.02;66.76
53715;BME280;39608;55.630;37.864;2022-11-20T12:01:53;99981.53;;;0.02;66.99
53715;BME280;39608;55.630;37.864;2022-11-20T12:07:01;99986.63;;;0.10;67.38
53715;BME280;39608;55.630;37.864;2022-11-20T12:12:09;99977.38;;;0.13;67.15
53715;BME280;39608;55.630;37.864;2022-11-20T12:17:14;99987.59;;;0.23;66.98
53715;BME280;39608;55.630;37.864;2022-11-20T12:22:27;99982.41;;;0.28;67.03
53715;BME280;39608;55.630;37.864;2022-11-20T12:27:47;99977.44;;;0.38;66.79
53715;BME280;39608;55.630;37.864;2022-11-20T12:38:45;99973.41;;;0.22;66.34
53715;BME280;39608;55.630;37.864;2022-11-20T12:43:58;99980.81;;;0.20;66.09
53715;BME280;39608;55.630;37.864;2022-11-20T12:49:28;99994.16;;;0.20;66.17
53715;BME280;39608;55.630;37.864;2022-11-20T12:54:49;99991.72;;;0.19;66.07
53715;BME280;39608;55.630;37.864;2022-11-20T13:00:02;99978.44;;;0.05;65.78
53715;BME280;39608;55.630;37.864;2022-11-20T13:05:18;100008.75;;;0.17;65.77
53715;BME280;39608;55.630;37.864;2022-11-20T13:10:29;100019.63;;;0.16;65.49
53715;BME280;39608;55.630;37.864;2022-11-20T13:15:40;100011.22;;;0.12;65.74
53715;BME280;39608;55.630;37.864;2022-11-20T13:20:46;100004.09;;;0.06;65.13
53715;BME280;39608;55.630;37.864;2022-11-20T13:25:50;100010.06;;;0.02;65.23
53715;BME280;39608;55.630;37.864;2022-11-20T13:30:54;100021.97;;;-0.01;65.21
53715;BME280;39608;55.630;37.864;2022-11-20T13:35:59;100018.47;;;-0.02;65.33
53715;BME280;39608;55.630;37.864;2022-11-20T13:41:03;100033.00;;;0.03;65.69
53715;BME280;39608;55.630;37.864;2022-11-20T13:46:35;100024.00;;;0.04;65.48
53715;BME280;39608;55.630;37.864;2022-11-20T13:51:43;100000.31;;;-0.18;65.61
53715;BME280;39608;55.630;37.864;2022-11-20T13:56:56;100028.31;;;-0.02;65.81
53715;BME280;39608;55.630;37.864;2022-11-20T14:02:01;100043.31;;;-0.08;65.70
53715;BME280;39608;55.630;37.864;2022-11-20T14:07:05;100032.66;;;-0.08;65.76
53715;BME280;39608;55.630;37.864;2022-11-20T14:12:16;100037.22;;;-0.15;65.73
53715;BME280;39608;55.630;37.864;2022-11-20T14:17:21;100058.56;;;-0.28;66.49
53715;BME280;39608;55.630;37.864;2022-11-20T14:22:24;100063.31;;;-0.37;66.41
53715;BME280;39608;55.630;37.864;2022-11-20T14:27:28;100056.53;;;-0.33;66.33
53715;BME280;39608;55.630;37.864;2022-11-20T14:32:31;100052.66;;;-0.37;66.60
53715;BME280;39608;55.630;37.864;2022-11-20T14:37:36;100060.41;;;-0.29;66.73
53715;BME280;39608;55.630;37.864;2022-11-20T14:42:43;100063.28;;;-0.30;67.00
53715;BME280;39608;55.630;37.864;2022-11-20T14:47:46;100097.94;;;-0.24;66.60
53715;BME280;39608;55.630;37.864;2022-11-20T14:52:53;100088.88;;;-0.23;66.61
53715;BME280;39608;55.630;37.864;2022-11-20T14:58:01;100090.31;;;-0.20;66.90
53715;BME280;39608;55.630;37.864;2022-11-20T15:03:14;100088.88;;;-0.23;66.53
53715;BME280;39608;55.630;37.864;2022-11-20T15:08:17;100086.28;;;-0.36;66.67
53715;BME280;39608;55.630;37.864;2022-11-20T15:13:25;100065.19;;;-0.44;66.88
53715;BME280;39608;55.630;37.864;2022-11-20T15:18:32;100084.81;;;-0.32;66.89
53715;BME280;39608;55.630;37.864;2022-11-20T15:23:38;100081.97;;;-0.37;66.62
53715;BME280;39608;55.630;37.864;2022-11-20T15:28:43;100070.09;;;-0.48;67.01
53715;BME280;39608;55.630;37.864;2022-11-20T15:33:48;100066.25;;;-0.59;67.12
53715;BME280;39608;55.630;37.864;2022-11-20T15:38:50;100073.00;;;-0.63;67.00
53715;BME280;39608;55.630;37.864;2022-11-20T15:43:55;100082.00;;;-0.64;67.12
53715;BME280;39608;55.630;37.864;2022-11-20T15:48:59;100082.81;;;-0.63;67.23
53715;BME280;39608;55.630;37.864;2022-11-20T15:54:09;100069.50;;;-0.70;67.18
53715;BME280;39608;55.630;37.864;2022-11-20T15:59:13;100069.31;;;-0.75;67.47
53715;BME280;39608;55.630;37.864;2022-11-20T16:04:16;100069.53;;;-0.77;67.35
53715;BME280;39608;55.630;37.864;2022-11-20T16:09:19;100091.66;;;-0.76;67.04
53715;BME280;39608;55.630;37.864;2022-11-20T16:14:22;100080.16;;;-0.70;67.16
53715;BME280;39608;55.630;37.864;2022-11-20T16:19:41;100063.16;;;-0.62;67.29
53715;BME280;39608;55.630;37.864;2022-11-20T16:24:43;100060.69;;;-0.57;67.22
53715;BME280;39608;55.630;37.864;2022-11-20T16:29:47;100068.44;;;-0.42;67.51
53715;BME280;39608;55.630;37.864;2022-11-20T16:34:50;100064.16;;;-0.43;67.39
53715;BME280;39608;55.630;37.864;2022-11-20T16:39:52;100069.28;;;-0.42;67.12
53715;BME280;39608;55.630;37.864;2022-11-20T16:44:58;100086.47;;;-0.38;66.98
53715;BME280;39608;55.630;37.864;2022-11-20T16:50:00;100081.75;;;-0.36;67.06
53715;BME280;39608;55.630;37.864;2022-11-20T16:55:05;100072.53;;;-0.40;67.34
53715;BME280;39608;55.630;37.864;2022-11-20T17:00:11;100070.72;;;-0.46;67.07
53715;BME280;39608;55.630;37.864;2022-11-20T17:05:14;100076.66;;;-0.50;66.99
53715;BME280;39608;55.630;37.864;2022-11-20T17:10:16;100074.41;;;-0.54;67.47
53715;BME280;39608;55.630;37.864;2022-11-20T17:15:20;100071.13;;;-0.49;67.56
53715;BME280;39608;55.630;37.864;2022-11-20T17:20:22;100055.34;;;-0.50;67.24
53715;BME280;39608;55.630;37.864;2022-11-20T17:25:24;100050.44;;;-0.54;67.23
53715;BME280;39608;55.630;37.864;2022-11-20T17:30:28;100069.28;;;-0.55;66.97
53715;BME280;39608;55.630;37.864;2022-11-20T17:35:31;100070.09;;;-0.55;67.14
53715;BME280;39608;55.630;37.864;2022-11-20T17:40:33;100089.78;;;-0.56;66.62
53715;BME280;39608;55.630;37.864;2022-11-20T17:45:36;100080.56;;;-0.60;66.48
53715;BME280;39608;55.630;37.864;2022-11-20T17:50:38;100069.50;;;-0.70;66.90
53715;BME280;39608;55.630;37.864;2022-11-20T17:55:41;100064.22;;;-0.77;66.71
53715;BME280;39608;55.630;37.864;2022-11-20T18:01:05;100086.75;;;-0.79;66.59
53715;BME280;39608;55.630;37.864;2022-11-20T18:06:09;100082.44;;;-0.87;66.39
53715;BME280;39608;55.630;37.864;2022-11-20T18:11:13;100086.31;;;-0.83;66.44
53715;BME280;39608;55.630;37.864;2022-11-20T18:16:17;100080.41;;;-0.78;66.29
53715;BME280;39608;55.630;37.864;2022-11-20T18:21:19;100073.00;;;-0.83;65.92
53715;BME280;39608;55.630;37.864;2022-11-20T18:26:22;100073.41;;;-0.79;66.54
53715;BME280;39608;55.630;37.864;2022-11-20T18:31:26;100082.22;;;-0.72;66.13
53715;BME280;39608;55.630;37.864;2022-11-20T18:36:30;100098.38;;;-0.60;66.14
53715;BME280;39608;55.630;37.864;2022-11-20T18:41:33;100096.34;;;-0.52;65.85
53715;BME280;39608;55.630;37.864;2022-11-20T18:46:56;100098.38;;;-0.47;65.83
53715;BME280;39608;55.630;37.864;2022-11-20T18:51:58;100098.97;;;-0.45;65.98
53715;BME280;39608;55.630;37.864;2022-11-20T18:57:01;100090.81;;;-0.43;65.93
53715;BME280;39608;55.630;37.864;2022-11-20T19:02:05;100089.34;;;-0.39;65.58
53715;BME280;39608;55.630;37.864;2022-11-20T19:07:10;100088.09;;;-0.37;65.89
53715;BME280;39608;55.630;37.864;2022-11-20T19:12:12;100080.53;;;-0.46;66.23
53715;BME280;39608;55.630;37.864;2022-11-20T19:17:16;100070.50;;;-0.51;65.79
53715;BME280;39608;55.630;37.864;2022-11-20T19:22:20;100074.81;;;-0.57;65.94
53715;BME280;39608;55.630;37.864;2022-11-20T19:27:22;100067.25;;;-0.60;66.42
53715;BME280;39608;55.630;37.864;2022-11-20T19:32:26;100064.59;;;-0.60;66.53
53715;BME280;39608;55.630;37.864;2022-11-20T19:37:28;100055.97;;;-0.62;66.10
53715;BME280;39608;55.630;37.864;2022-11-20T19:42:33;100075.03;;;-0.58;66.26
53715;BME280;39608;55.630;37.864;2022-11-20T19:47:36;100072.16;;;-0.50;66.51
53715;BME280;39608;55.630;37.864;2022-11-20T19:52:38;100063.94;;;-0.48;66.32
53715;BME280;39608;55.630;37.864;2022-11-20T19:57:40;100060.28;;;-0.47;66.63
53715;BME280;39608;55.630;37.864;2022-11-20T20:02:44;100057.41;;;-0.46;66.57
53715;BME280;39608;55.630;37.864;2022-11-20T20:07:46;100079.53;;;-0.52;66.42
53715;BME280;39608;55.630;37.864;2022-11-20T20:12:48;100081.38;;;-0.59;66.45
53715;BME280;39608;55.630;37.864;2022-11-20T20:17:52;100083.25;;;-0.60;66.81
53715;BME280;39608;55.630;37.864;2022-11-20T20:22:54;100103.53;;;-0.59;66.32
53715;BME280;39608;55.630;37.864;2022-11-20T20:27:56;100101.88;;;-0.60;66.26
53715;BME280;39608;55.630;37.864;2022-11-20T20:32:59;100097.16;;;-0.58;66.60
53715;BME280;39608;55.630;37.864;2022-11-20T20:38:01;100104.56;;;-0.60;66.53
53715;BME280;39608;55.630;37.864;2022-11-20T20:43:03;100119.69;;;-0.54;66.48
53715;BME280;39608;55.630;37.864;2022-11-20T20:48:07;100095.13;;;-0.56;65.98
53715;BME280;39608;55.630;37.864;2022-11-20T20:53:09;100098.81;;;-0.63;66.39
53715;BME280;39608;55.630;37.864;2022-11-20T20:58:11;100078.94;;;-0.67;66.19
53715;BME280;39608;55.630;37.864;2022-11-20T21:03:14;100108.22;;;-0.61;66.04
53715;BME280;39608;55.630;37.864;2022-11-20T21:08:17;100100.88;;;-0.65;66.00
53715;BME280;39608;55.630;37.864;2022-11-20T21:13:22;100112.31;;;-0.65;65.93
53715;BME280;39608;55.630;37.864;2022-11-20T21:18:26;100109.47;;;-0.63;66.39
53715;BME280;39608;55.630;37.864;2022-11-20T21:23:28;100106.63;;;-0.68;66.28
53715;BME280;39608;55.630;37.864;2022-11-20T21:28:31;100097.78;;;-0.69;66.24
53715;BME280;39608;55.630;37.864;2022-11-20T21:33:39;100105.78;;;-0.76;66.22
53715;BME280;39608;55.630;37.864;2022-11-20T21:38:42;100107.81;;;-0.84;65.79
53715;BME280;39608;55.630;37.864;2022-11-20T21:43:44;100103.53;;;-0.86;66.19
53715;BME280;39608;55.630;37.864;2022-11-20T21:48:48;100098.41;;;-0.80;65.95
53715;BME280;39608;55.630;37.864;2022-11-20T21:53:51;100073.63;;;-0.88;66.44
53715;BME280;39608;55.630;37.864;2022-11-20T21:58:54;100078.16;;;-0.88;65.98
53715;BME280;39608;55.630;37.864;2022-11-20T22:03:59;100090.63;;;-0.89;65.89
53715;BME280;39608;55.630;37.864;2022-11-20T22:09:02;100101.28;;;-0.89;66.17
53715;BME280;39608;55.630;37.864;2022-11-20T22:14:04;100092.06;;;-0.93;65.90
53715;BME280;39608;55.630;37.864;2022-11-20T22:19:23;100073.41;;;-0.99;65.60
53715;BME280;39608;55.630;37.864;2022-11-20T22:24:25;100074.66;;;-1.02;65.75
53715;BME280;39608;55.630;37.864;2022-11-20T22:29:27;100084.47;;;-1.02;66.11
53715;BME280;39608;55.630;37.864;2022-11-20T22:34:30;100088.34;;;-1.05;66.01
53715;BME280;39608;55.630;37.864;2022-11-20T22:39:32;100082.63;;;-1.09;66.12
53715;BME280;39608;55.630;37.864;2022-11-20T22:44:34;100089.41;;;-1.06;66.30
53715;BME280;39608;55.630;37.864;2022-11-20T22:49:37;100075.88;;;-1.05;66.14
53715;BME280;39608;55.630;37.864;2022-11-20T22:54:39;100075.66;;;-1.10;65.88
53715;BME280;39608;55.630;37.864;2022-11-20T22:59:41;100075.88;;;-1.11;65.39
53715;BME280;39608;55.630;37.864;2022-11-20T23:04:44;100069.94;;;-1.13;66.01
53715;BME280;39608;55.630;37.864;2022-11-20T23:09:46;100066.44;;;-1.14;66.24
53715;BME280;39608;55.630;37.864;2022-11-20T23:14:48;100060.31;;;-1.21;65.71
53715;BME280;39608;55.630;37.864;2022-11-20T23:19:52;100052.13;;;-1.26;65.59
53715;BME280;39608;55.630;37.864;2022-11-20T23:24:54;100037.38;;;-1.29;65.90
53715;BME280;39608;55.630;37.864;2022-11-20T23:29:56;100046.59;;;-1.31;65.71
53715;BME280;39608;55.630;37.864;2022-11-20T23:35:00;100038.19;;;-1.35;66.03
53715;BME280;39608;55.630;37.864;2022-11-20T23:40:04;100042.69;;;-1.49;65.80
53715;BME280;39608;55.630;37.864;2022-11-20T23:45:07;100043.47;;;-1.62;65.34
53715;BME280;39608;55.630;37.864;2022-11-20T23:50:11;100040.59;;;-1.67;65.92
53715;BME280;39608;55.630;37.864;2022-11-20T23:55:13;100032.81;;;-1.75;65.96
